Аэропорт: Шпаковское. Ставрополь

ICAO: URMT

METAR:
2019/01/21 22:30
URMT 212230Z 31009MPS 9999 -SHRA BKN021CB 05/M00 Q1013 R25/150060 NOSIG RMK QFE721
METAR:
2018/10/17 18:00
TAF URMT 171700Z 1718/1803 08005G10MPS 9999 SCT020 
      TEMPO 1718/1721 3100 BR SCT011 BKN020 
     FM172100 10004G09MPS 3100 BR SCT011 BKN020 
      TEMPO 1721/1803 0300 FG BKN002 BKN020